createdAt,value
2019-03-28T00:00:40.538Z,2.75
2019-03-28T00:03:10.294Z,2.79
2019-03-28T00:05:40.055Z,2.76
2019-03-28T00:08:12.378Z,2.75
2019-03-28T00:10:41.208Z,2.66
2019-03-28T00:13:12.163Z,2.75
2019-03-28T00:15:41.912Z,2.95
2019-03-28T00:18:11.708Z,2.85
2019-03-28T00:20:41.421Z,2.78
2019-03-28T00:23:23.424Z,2.66
2019-03-28T00:25:53.114Z,2.46
2019-03-28T00:28:22.920Z,2.44
2019-03-28T00:30:52.620Z,2.36
2019-03-28T00:33:22.349Z,2.37
2019-03-28T00:35:52.057Z,2.39
2019-03-28T00:38:21.772Z,2.41
2019-03-28T00:40:51.725Z,2.29
2019-03-28T00:43:21.584Z,2.23
2019-03-28T00:45:51.649Z,2.14
2019-03-28T00:48:21.361Z,2.17
2019-03-28T00:50:51.085Z,2.15
2019-03-28T00:53:20.930Z,2.06
2019-03-28T00:55:50.664Z,2.02
2019-03-28T00:58:20.374Z,2.19
2019-03-28T01:00:50.099Z,2.55
2019-03-28T01:03:19.846Z,2.71
2019-03-28T01:05:49.663Z,2.61
2019-03-28T01:08:19.729Z,2.44
2019-03-28T01:10:49.739Z,2.26
2019-03-28T01:13:19.445Z,2.21
2019-03-28T01:15:49.322Z,2.17
2019-03-28T01:18:19.347Z,2.09
2019-03-28T01:20:49.974Z,1.95
2019-03-28T01:23:19.663Z,1.90
2019-03-28T01:25:49.368Z,2.04
2019-03-28T01:28:19.186Z,2.01
2019-03-28T01:30:48.997Z,1.90
2019-03-28T01:33:18.696Z,1.80
2019-03-28T01:35:48.411Z,1.86
2019-03-28T01:38:18.067Z,1.78
2019-03-28T01:40:47.744Z,1.65
2019-03-28T01:43:17.420Z,1.50
2019-03-28T01:45:47.262Z,1.47
2019-03-28T01:48:17.039Z,1.46
2019-03-28T01:50:46.759Z,1.42
2019-03-28T01:53:16.553Z,1.42
2019-03-28T01:55:46.286Z,1.44
2019-03-28T01:58:16.163Z,1.61
2019-03-28T02:00:45.935Z,1.60
2019-03-28T02:03:15.714Z,1.43
2019-03-28T02:05:45.397Z,1.38
2019-03-28T02:08:15.294Z,1.22
2019-03-28T02:10:45.097Z,1.07
2019-03-28T02:13:14.932Z,1.01
2019-03-28T02:15:44.793Z,0.98
2019-03-28T02:18:14.523Z,0.92
2019-03-28T02:20:44.242Z,0.85
2019-03-28T02:23:14.165Z,0.85
2019-03-28T02:25:43.909Z,0.89
2019-03-28T02:28:13.638Z,0.91
2019-03-28T02:30:43.356Z,0.85
2019-03-28T02:33:13.218Z,0.88
2019-03-28T02:35:42.908Z,0.90
2019-03-28T02:38:12.675Z,0.90
2019-03-28T02:40:42.727Z,0.89
2019-03-28T02:43:12.595Z,0.78
2019-03-28T02:45:42.310Z,0.81
2019-03-28T02:48:12.174Z,0.78
2019-03-28T02:50:41.879Z,0.68
2019-03-28T02:53:11.641Z,0.71
2019-03-28T02:55:41.350Z,0.70
2019-03-28T02:58:11.207Z,0.70
2019-03-28T03:00:40.975Z,0.88
2019-03-28T03:03:10.716Z,0.81
2019-03-28T03:05:40.442Z,0.74
2019-03-28T03:08:10.166Z,0.74
2019-03-28T03:10:40.241Z,0.73
2019-03-28T03:13:09.956Z,0.59
2019-03-28T03:15:39.691Z,0.58
2019-03-28T03:18:09.378Z,0.59
2019-03-28T03:20:39.142Z,0.72
2019-03-28T03:23:08.865Z,0.67
2019-03-28T03:25:38.556Z,0.46
2019-03-28T03:28:08.265Z,0.40
2019-03-28T03:30:37.996Z,0.40
2019-03-28T03:33:09.171Z,0.42
2019-03-28T03:35:39.181Z,0.38
2019-03-28T03:38:08.946Z,0.31
2019-03-28T03:40:39.214Z,0.28
2019-03-28T03:43:08.950Z,0.28
2019-03-28T03:45:38.699Z,0.31
2019-03-28T03:48:08.378Z,0.27
2019-03-28T03:50:38.350Z,0.27
2019-03-28T03:53:08.151Z,0.51
2019-03-28T03:55:37.914Z,0.49
2019-03-28T03:58:15.335Z,0.36
2019-03-28T04:00:39.370Z,0.26
2019-03-28T04:03:09.078Z,0.33
2019-03-28T04:05:38.900Z,0.32
2019-03-28T04:08:08.605Z,0.40
2019-03-28T04:10:38.347Z,0.45
2019-03-28T04:13:08.185Z,0.55
2019-03-28T04:15:38.237Z,0.49
2019-03-28T04:18:08.080Z,0.56
2019-03-28T04:20:37.791Z,0.57
2019-03-28T04:23:07.518Z,0.72
2019-03-28T04:25:37.687Z,0.50
2019-03-28T04:28:07.425Z,0.36
2019-03-28T04:30:37.182Z,0.34
2019-03-28T04:33:06.987Z,0.09
2019-03-28T04:35:36.711Z,0.03
2019-03-28T04:38:06.474Z,-0.03
2019-03-28T04:40:36.284Z,0.02
2019-03-28T04:43:06.257Z,-0.05
2019-03-28T04:45:35.976Z,-0.08
2019-03-28T04:48:05.701Z,-0.04
2019-03-28T04:50:36.184Z,0.04
2019-03-28T04:53:05.945Z,-0.09
2019-03-28T04:55:35.678Z,-0.02
2019-03-28T04:58:05.409Z,-0.10
2019-03-28T05:00:35.618Z,-0.06
2019-03-28T05:03:05.497Z,-0.10
2019-03-28T05:05:35.248Z,-0.19
2019-03-28T05:08:05.313Z,-0.27
2019-03-28T05:10:35.090Z,-0.23
2019-03-28T05:13:04.765Z,-0.16
2019-03-28T05:15:34.538Z,-0.14
2019-03-28T05:18:04.273Z,-0.17
2019-03-28T05:20:33.997Z,-0.22
2019-03-28T05:23:03.819Z,-0.19
2019-03-28T05:25:33.577Z,-0.19
2019-03-28T05:28:03.559Z,-0.14
2019-03-28T05:30:33.418Z,-0.05
2019-03-28T05:33:03.295Z,0.00
2019-03-28T05:35:33.133Z,-0.04
2019-03-28T05:38:02.870Z,-0.05
2019-03-28T05:40:32.582Z,-0.05
2019-03-28T05:43:02.397Z,0.04
2019-03-28T05:45:32.408Z,0.12
2019-03-28T05:48:02.151Z,0.20
2019-03-28T05:50:32.239Z,0.23
2019-03-28T05:53:01.960Z,0.32
2019-03-28T05:55:31.815Z,0.40
2019-03-28T05:58:03.275Z,0.29
2019-03-28T06:00:33.003Z,0.20
2019-03-28T06:03:02.845Z,0.38
2019-03-28T06:05:32.613Z,0.91
2019-03-28T06:08:02.578Z,1.79
2019-03-28T06:10:32.556Z,2.71
2019-03-28T06:13:02.237Z,3.68
2019-03-28T06:15:32.061Z,4.30
2019-03-28T06:18:01.927Z,4.65
2019-03-28T06:20:31.630Z,4.31
2019-03-28T06:23:01.328Z,4.23
2019-03-28T06:25:32.622Z,3.88
2019-03-28T06:28:02.294Z,3.30
2019-03-28T06:30:32.012Z,3.23
2019-03-28T06:33:01.687Z,3.21
2019-03-28T06:35:31.406Z,2.98
2019-03-28T06:38:01.124Z,2.92
2019-03-28T06:40:31.339Z,3.08
2019-03-28T06:43:01.159Z,3.20
2019-03-28T06:45:31.081Z,3.34
2019-03-28T06:48:01.067Z,3.55
2019-03-28T06:50:30.799Z,3.60
2019-03-28T06:53:00.655Z,3.86
2019-03-28T06:55:30.535Z,3.90
2019-03-28T06:58:00.339Z,3.61
2019-03-28T07:00:30.058Z,3.41
2019-03-28T07:03:00.161Z,3.17
2019-03-28T07:05:29.898Z,3.09
2019-03-28T07:07:59.619Z,3.07
2019-03-28T07:10:29.724Z,3.13
2019-03-28T07:12:59.430Z,3.43
2019-03-28T07:15:29.277Z,3.64
2019-03-28T07:17:58.999Z,3.76
2019-03-28T07:20:28.759Z,4.04
2019-03-28T07:22:58.486Z,4.20
2019-03-28T07:25:28.205Z,4.42
2019-03-28T07:27:58.137Z,4.67
2019-03-28T07:30:27.843Z,4.81
2019-03-28T07:32:57.580Z,4.88
2019-03-28T07:35:27.283Z,4.81
2019-03-28T07:37:57.218Z,4.91
2019-03-28T07:40:26.940Z,4.99
2019-03-28T07:42:56.684Z,5.11
2019-03-28T07:45:26.375Z,5.29
2019-03-28T07:47:56.490Z,5.60
2019-03-28T07:50:26.511Z,5.75
2019-03-28T07:52:56.330Z,5.91
2019-03-28T07:55:26.309Z,5.98
2019-03-28T07:57:56.170Z,5.98
2019-03-28T08:00:25.872Z,6.15
2019-03-28T08:02:58.358Z,6.26
2019-03-28T08:05:27.037Z,6.13
2019-03-28T08:07:56.817Z,5.84
2019-03-28T08:10:26.551Z,5.98
2019-03-28T08:12:56.566Z,6.27
2019-03-28T08:15:26.567Z,6.51
2019-03-28T08:17:56.286Z,6.77
2019-03-28T08:20:26.020Z,6.91
2019-03-28T08:22:55.717Z,7.00
2019-03-28T08:25:25.463Z,7.00
2019-03-28T08:27:57.642Z,7.07
2019-03-28T08:30:37.560Z,7.09
2019-03-28T08:33:09.059Z,7.14
2019-03-28T08:35:38.996Z,7.49
2019-03-28T08:38:10.140Z,7.30
2019-03-28T08:40:42.056Z,7.53
2019-03-28T08:43:12.538Z,7.63
2019-03-28T08:45:42.272Z,7.69
2019-03-28T08:48:12.155Z,7.77
2019-03-28T08:50:41.965Z,8.03
2019-03-28T08:53:12.682Z,7.98
2019-03-28T08:55:42.418Z,8.14
2019-03-28T08:58:12.116Z,8.63
2019-03-28T09:00:51.666Z,8.60
2019-03-28T09:03:13.524Z,8.72
2019-03-28T09:05:43.227Z,8.86
2019-03-28T09:08:12.972Z,9.14
2019-03-28T09:10:42.688Z,9.19
2019-03-28T09:13:12.406Z,9.09
2019-03-28T09:15:43.986Z,9.28
2019-03-28T09:18:14.033Z,9.45
2019-03-28T09:20:43.791Z,9.44
2019-03-28T09:23:13.506Z,9.50
2019-03-28T09:25:43.385Z,9.41
2019-03-28T09:28:13.130Z,9.45
2019-03-28T09:30:48.662Z,9.56
2019-03-28T09:33:14.599Z,9.92
2019-03-28T09:35:44.683Z,10.21
2019-03-28T09:38:14.637Z,10.16
2019-03-28T09:40:44.465Z,9.99
2019-03-28T09:43:14.518Z,10.23
2019-03-28T09:45:44.321Z,10.48
2019-03-28T09:48:14.118Z,10.54
2019-03-28T09:50:43.884Z,10.51
2019-03-28T09:53:14.062Z,10.40
2019-03-28T09:55:44.121Z,10.62
2019-03-28T09:58:13.859Z,10.82
2019-03-28T10:00:43.615Z,10.68
2019-03-28T10:03:13.789Z,11.04
2019-03-28T10:05:43.492Z,11.11
2019-03-28T10:08:13.209Z,11.15
2019-03-28T10:10:42.941Z,11.38
2019-03-28T10:13:12.671Z,11.38
2019-03-28T10:15:42.392Z,11.37
2019-03-28T10:18:12.432Z,11.57
2019-03-28T10:20:42.144Z,11.67
2019-03-28T10:23:12.524Z,11.67
2019-03-28T10:25:42.241Z,11.52
2019-03-28T10:28:12.133Z,11.50
2019-03-28T10:30:43.872Z,11.60
2019-03-28T10:33:13.910Z,11.88
2019-03-28T10:35:43.726Z,11.90
2019-03-28T10:38:13.492Z,11.96
2019-03-28T10:40:43.405Z,11.78
2019-03-28T10:43:13.118Z,12.03
2019-03-28T10:45:42.821Z,11.91
2019-03-28T10:48:12.751Z,12.26
2019-03-28T10:50:45.735Z,12.10
2019-03-28T10:53:14.239Z,12.18
2019-03-28T10:55:43.936Z,12.28
2019-03-28T10:58:18.689Z,12.57
2019-03-28T11:00:45.644Z,12.41
2019-03-28T11:03:15.455Z,12.94
2019-03-28T11:05:45.217Z,13.01
2019-03-28T11:08:14.975Z,13.38
2019-03-28T11:10:44.676Z,13.21
2019-03-28T11:13:14.391Z,13.07
2019-03-28T11:15:44.105Z,13.20
2019-03-28T11:18:14.146Z,13.05
2019-03-28T11:20:43.864Z,12.88
2019-03-28T11:23:13.729Z,13.03
2019-03-28T11:25:43.440Z,12.96
2019-03-28T11:28:13.245Z,12.88
2019-03-28T11:30:43.252Z,12.73
2019-03-28T11:33:13.003Z,13.09
2019-03-28T11:35:42.739Z,12.99
2019-03-28T11:38:12.470Z,13.01
2019-03-28T11:40:42.983Z,13.28
2019-03-28T11:43:12.909Z,13.63
2019-03-28T11:45:42.651Z,13.87
2019-03-28T11:48:12.358Z,14.55
2019-03-28T11:50:42.098Z,14.86
2019-03-28T11:53:12.131Z,14.58
2019-03-28T11:55:41.861Z,14.21
2019-03-28T11:58:11.870Z,13.81
2019-03-28T12:00:42.159Z,13.61
2019-03-28T12:03:11.994Z,13.59
2019-03-28T12:05:41.757Z,13.74
2019-03-28T12:08:11.530Z,13.56
2019-03-28T12:10:41.276Z,13.39
2019-03-28T12:13:11.335Z,13.25
2019-03-28T12:15:41.071Z,13.40
2019-03-28T12:18:10.795Z,13.40
2019-03-28T12:20:40.513Z,13.24
2019-03-28T12:23:10.431Z,13.59
2019-03-28T12:25:40.196Z,13.79
2019-03-28T12:28:09.902Z,14.14
2019-03-28T12:30:39.848Z,13.53
2019-03-28T12:33:09.561Z,13.49
2019-03-28T12:35:39.280Z,13.62
2019-03-28T12:38:08.970Z,13.61
2019-03-28T12:40:38.695Z,13.32
2019-03-28T12:43:08.410Z,13.52
2019-03-28T12:45:38.193Z,13.68
2019-03-28T12:48:08.407Z,13.67
2019-03-28T12:50:38.199Z,13.57
2019-03-28T12:53:07.918Z,13.59
2019-03-28T12:55:37.699Z,13.56
2019-03-28T12:58:07.741Z,13.61
2019-03-28T13:00:38.241Z,13.62
2019-03-28T13:03:07.963Z,13.54
2019-03-28T13:05:37.710Z,13.62
2019-03-28T13:08:07.622Z,13.79
2019-03-28T13:10:37.812Z,13.93
2019-03-28T13:13:07.794Z,14.15
2019-03-28T13:15:37.597Z,14.08
2019-03-28T13:18:07.555Z,14.00
2019-03-28T13:20:37.761Z,13.99
2019-03-28T13:23:07.577Z,13.97
2019-03-28T13:25:37.287Z,14.21
2019-03-28T13:28:07.030Z,14.25
2019-03-28T13:30:36.855Z,14.52
2019-03-28T13:33:06.603Z,14.37
2019-03-28T13:35:36.389Z,14.35
2019-03-28T13:38:06.159Z,14.20
2019-03-28T13:40:35.890Z,14.20
2019-03-28T13:43:06.020Z,14.32
2019-03-28T13:45:35.842Z,14.41
2019-03-28T13:48:06.003Z,14.19
2019-03-28T13:50:35.720Z,14.05
2019-03-28T13:53:05.463Z,13.97
2019-03-28T13:55:35.174Z,13.88
2019-03-28T13:58:05.070Z,13.71
2019-03-28T14:00:35.943Z,13.70
2019-03-28T14:03:05.995Z,14.01
2019-03-28T14:05:35.779Z,13.95
2019-03-28T14:08:05.685Z,13.88
2019-03-28T14:10:35.393Z,14.35
2019-03-28T14:13:05.091Z,14.52
2019-03-28T14:15:34.827Z,14.60
2019-03-28T14:18:04.606Z,14.71
2019-03-28T14:20:34.331Z,14.63
2019-03-28T14:23:04.284Z,14.53
2019-03-28T14:25:34.020Z,14.41
2019-03-28T14:28:03.725Z,14.16
2019-03-28T14:30:33.494Z,14.30
2019-03-28T14:33:11.203Z,14.18
2019-03-28T14:35:34.886Z,14.11
2019-03-28T14:38:04.583Z,13.97
2019-03-28T14:40:34.306Z,13.81
2019-03-28T14:43:04.454Z,13.78
2019-03-28T14:45:34.232Z,13.80
2019-03-28T14:48:06.801Z,13.75
2019-03-28T14:50:37.450Z,13.63
2019-03-28T14:53:07.422Z,13.79
2019-03-28T14:55:37.284Z,13.88
2019-03-28T14:58:07.514Z,13.82
2019-03-28T15:00:54.839Z,13.82
2019-03-28T15:03:26.602Z,13.71
2019-03-28T15:05:56.042Z,13.69
2019-03-28T15:08:25.806Z,13.81
2019-03-28T15:10:55.711Z,13.84
2019-03-28T15:13:25.515Z,13.77
2019-03-28T15:15:55.304Z,13.76
2019-03-28T15:18:25.005Z,13.62
2019-03-28T15:20:54.761Z,13.64
2019-03-28T15:23:24.506Z,13.69
2019-03-28T15:25:54.249Z,13.62
2019-03-28T15:28:23.942Z,13.71
2019-03-28T15:30:53.756Z,13.83
2019-03-28T15:33:23.545Z,13.79
2019-03-28T15:35:53.294Z,13.81
2019-03-28T15:38:23.005Z,13.93
2019-03-28T15:40:52.766Z,13.75
2019-03-28T15:43:22.487Z,13.83
2019-03-28T15:45:52.491Z,13.79
2019-03-28T15:48:22.324Z,13.82
2019-03-28T15:50:52.086Z,13.72
2019-03-28T15:53:22.004Z,13.71
2019-03-28T15:55:51.761Z,13.64
2019-03-28T15:58:23.650Z,13.59
2019-03-28T16:00:53.387Z,13.61
2019-03-28T16:03:23.207Z,13.68
2019-03-28T16:05:58.417Z,13.53
2019-03-28T16:08:24.361Z,13.56
2019-03-28T16:10:54.068Z,13.49
2019-03-28T16:13:23.794Z,13.49
2019-03-28T16:15:53.540Z,13.54
2019-03-28T16:18:23.785Z,13.45
2019-03-28T16:20:53.652Z,13.23
2019-03-28T16:23:25.563Z,13.18
2019-03-28T16:25:55.331Z,13.16
2019-03-28T16:28:27.996Z,13.15
2019-03-28T16:30:56.568Z,13.08
2019-03-28T16:33:26.320Z,13.11
2019-03-28T16:35:56.550Z,13.04
2019-03-28T16:38:28.443Z,13.02
2019-03-28T16:40:58.398Z,12.99
2019-03-28T16:43:28.233Z,12.97
2019-03-28T16:45:59.742Z,12.99
2019-03-28T16:48:29.472Z,12.96
2019-03-28T16:51:01.673Z,12.88
2019-03-28T16:53:31.486Z,12.80
2019-03-28T16:56:01.750Z,12.79
2019-03-28T16:58:33.418Z,12.67
2019-03-28T17:01:05.921Z,12.61
2019-03-28T17:03:36.874Z,12.56
2019-03-28T17:06:07.700Z,12.48
2019-03-28T17:08:38.005Z,12.38
2019-03-28T17:11:11.940Z,12.37
2019-03-28T17:13:42.647Z,12.29
2019-03-28T17:16:12.518Z,12.22
2019-03-28T17:18:42.254Z,12.16
2019-03-28T17:21:12.211Z,12.13
2019-03-28T17:23:41.919Z,12.01
2019-03-28T17:26:11.997Z,11.83
2019-03-28T17:28:41.712Z,11.78
2019-03-28T17:31:11.834Z,11.70
2019-03-28T17:33:41.596Z,11.66
2019-03-28T17:36:17.260Z,11.58
2019-03-28T17:38:47.519Z,11.57
2019-03-28T17:41:19.149Z,11.47
2019-03-28T17:43:48.859Z,11.44
2019-03-28T17:46:18.720Z,11.25
2019-03-28T17:48:48.683Z,11.19
2019-03-28T17:51:21.453Z,11.04
2019-03-28T17:53:56.059Z,11.10
2019-03-28T17:56:25.622Z,10.94
2019-03-28T17:58:55.391Z,10.93
2019-03-28T18:01:27.693Z,10.90
2019-03-28T18:03:58.120Z,10.85
2019-03-28T18:06:27.918Z,10.78
2019-03-28T18:08:58.732Z,10.72
2019-03-28T18:11:30.447Z,10.78
2019-03-28T18:14:00.283Z,10.75
2019-03-28T18:16:30.040Z,10.75
2019-03-28T18:18:59.913Z,10.76
2019-03-28T18:21:29.673Z,10.69
2019-03-28T18:23:59.371Z,10.61
2019-03-28T18:26:29.109Z,10.59
2019-03-28T18:28:58.799Z,10.59
2019-03-28T18:31:28.804Z,10.48
2019-03-28T18:33:58.553Z,10.35
2019-03-28T18:36:28.267Z,10.21
2019-03-28T18:38:58.028Z,10.16
2019-03-28T18:41:27.747Z,10.07
2019-03-28T18:43:57.526Z,9.99
2019-03-28T18:46:27.266Z,9.91
2019-03-28T18:48:57.029Z,9.93
2019-03-28T18:51:26.734Z,9.87
2019-03-28T18:53:56.647Z,9.75
2019-03-28T18:56:26.706Z,9.86
2019-03-28T18:58:57.586Z,9.81
2019-03-28T19:01:27.581Z,9.67
2019-03-28T19:03:57.286Z,9.76
2019-03-28T19:06:27.314Z,9.75
2019-03-28T19:08:57.056Z,9.69
2019-03-28T19:11:27.006Z,9.67
2019-03-28T19:13:56.917Z,9.74
2019-03-28T19:16:26.674Z,9.78
2019-03-28T19:18:59.781Z,9.74
2019-03-28T19:21:28.096Z,9.73
2019-03-28T19:23:57.766Z,9.65
2019-03-28T19:26:27.482Z,9.60
2019-03-28T19:28:57.226Z,9.60
2019-03-28T19:31:26.919Z,9.70
2019-03-28T19:33:56.714Z,9.81
2019-03-28T19:36:27.284Z,9.84
2019-03-28T19:38:57.093Z,9.85
2019-03-28T19:41:26.961Z,9.92
2019-03-28T19:43:56.729Z,9.99
2019-03-28T19:46:26.475Z,10.10
2019-03-28T19:48:56.202Z,10.19
2019-03-28T19:51:28.325Z,10.20
2019-03-28T19:53:57.860Z,10.19
2019-03-28T19:56:27.998Z,10.16
2019-03-28T19:58:59.143Z,10.12
2019-03-28T20:01:29.077Z,10.09
2019-03-28T20:03:58.898Z,10.12
2019-03-28T20:06:28.636Z,10.22
2019-03-28T20:08:58.481Z,10.24
2019-03-28T20:11:28.561Z,10.23
2019-03-28T20:13:58.567Z,10.23
2019-03-28T20:16:28.320Z,10.25
2019-03-28T20:18:58.031Z,10.23
2019-03-28T20:21:27.798Z,10.18
2019-03-28T20:23:57.529Z,10.17
2019-03-28T20:26:27.294Z,10.11
2019-03-28T20:28:57.053Z,10.04
2019-03-28T20:31:27.068Z,9.99
2019-03-28T20:36:38.601Z,9.81
2019-03-28T20:39:06.257Z,9.76
2019-03-28T20:41:36.195Z,9.77
2019-03-28T20:44:06.149Z,9.73
2019-03-28T20:46:35.953Z,9.71
2019-03-28T20:49:06.048Z,9.73
2019-03-28T20:51:35.769Z,9.68
2019-03-28T20:54:07.723Z,9.58
2019-03-28T20:56:37.300Z,9.55
2019-03-28T20:59:07.180Z,9.45
2019-03-28T21:01:36.889Z,9.38
2019-03-28T21:04:07.189Z,9.33
2019-03-28T21:06:37.758Z,9.28
2019-03-28T21:09:08.604Z,9.28
2019-03-28T21:11:38.355Z,9.30
2019-03-28T21:14:08.169Z,9.28
2019-03-28T21:16:38.435Z,9.35
2019-03-28T21:19:08.524Z,9.34
2019-03-28T21:21:38.292Z,9.30
2019-03-28T21:24:08.343Z,9.35
2019-03-28T21:26:38.422Z,9.44
2019-03-28T21:29:08.522Z,9.49
2019-03-28T21:31:49.294Z,9.56
2019-03-28T21:34:09.857Z,9.55
2019-03-28T21:36:40.043Z,9.52
2019-03-28T21:39:09.809Z,9.48
2019-03-28T21:41:39.501Z,9.45
2019-03-28T21:44:10.776Z,9.44
2019-03-28T21:46:40.542Z,9.37
2019-03-28T21:49:11.818Z,9.46
2019-03-28T21:51:45.882Z,9.50
2019-03-28T21:54:15.103Z,9.50
2019-03-28T21:56:44.825Z,9.57
2019-03-28T22:02:40.066Z,9.61
2019-03-28T22:05:11.831Z,9.48
2019-03-28T22:07:41.582Z,9.39
2019-03-28T22:10:11.453Z,9.22
2019-03-28T22:12:41.267Z,9.22
2019-03-28T22:15:11.501Z,9.02
2019-03-28T22:17:41.974Z,8.91
2019-03-28T22:20:12.256Z,8.89
2019-03-28T22:22:43.662Z,9.00
2019-03-28T22:25:13.664Z,9.07
2019-03-28T22:27:43.527Z,9.09
2019-03-28T22:30:14.582Z,9.11
2019-03-28T22:32:44.278Z,9.16
2019-03-28T22:35:14.469Z,9.19
2019-03-28T22:37:44.828Z,9.22
2019-03-28T22:40:14.938Z,9.26
2019-03-28T22:42:45.939Z,9.27
2019-03-28T22:45:15.750Z,9.21
2019-03-28T22:47:46.340Z,9.12
2019-03-28T22:50:16.292Z,9.09
2019-03-28T22:52:46.274Z,9.04
2019-03-28T22:55:16.464Z,8.97
2019-03-28T22:57:46.751Z,8.91
2019-03-28T23:00:17.240Z,9.01
2019-03-28T23:02:47.154Z,8.95
2019-03-28T23:05:17.514Z,8.97
2019-03-28T23:07:47.510Z,8.96
2019-03-28T23:10:20.987Z,9.01
2019-03-28T23:12:50.426Z,9.05
2019-03-28T23:15:21.935Z,9.00
2019-03-28T23:17:51.948Z,8.96
2019-03-28T23:20:21.634Z,8.85
2019-03-28T23:22:51.388Z,8.82
2019-03-28T23:25:21.457Z,8.84
2019-03-28T23:27:51.222Z,8.91
2019-03-28T23:30:21.233Z,8.90
2019-03-28T23:32:50.910Z,8.86
2019-03-28T23:35:20.604Z,8.89
2019-03-28T23:37:50.314Z,8.85
2019-03-28T23:40:20.011Z,8.88
2019-03-28T23:42:49.759Z,8.83
2019-03-28T23:45:19.810Z,8.87
2019-03-28T23:47:49.678Z,8.78
2019-03-28T23:50:19.431Z,8.76
2019-03-28T23:52:49.250Z,8.63
2019-03-28T23:55:19.330Z,8.57
2019-03-28T23:57:49.022Z,8.41
